sensor_id;sensor_type;location;lat;lon;timestamp;P1;durP1;ratioP1;P2;durP2;ratioP2
43990;SDS011;29654;50.784;20.604;2023-11-19T00:02:40;11.55;;;8.63;;
43990;SDS011;29654;50.784;20.604;2023-11-19T00:07:44;9.50;;;8.52;;
43990;SDS011;29654;50.784;20.604;2023-11-19T00:12:47;8.93;;;8.02;;
43990;SDS011;29654;50.784;20.604;2023-11-19T00:17:50;8.38;;;7.55;;
43990;SDS011;29654;50.784;20.604;2023-11-19T00:22:55;9.10;;;8.05;;
43990;SDS011;29654;50.784;20.604;2023-11-19T00:27:57;10.65;;;8.85;;
43990;SDS011;29654;50.784;20.604;2023-11-19T00:33:00;10.38;;;8.68;;
43990;SDS011;29654;50.784;20.604;2023-11-19T00:38:04;10.70;;;8.32;;
43990;SDS011;29654;50.784;20.604;2023-11-19T00:43:07;10.10;;;8.80;;
43990;SDS011;29654;50.784;20.604;2023-11-19T00:48:10;9.18;;;8.07;;
43990;SDS011;29654;50.784;20.604;2023-11-19T00:53:16;10.35;;;8.95;;
43990;SDS011;29654;50.784;20.604;2023-11-19T00:58:19;9.82;;;8.45;;
43990;SDS011;29654;50.784;20.604;2023-11-19T01:03:22;11.20;;;8.73;;
43990;SDS011;29654;50.784;20.604;2023-11-19T01:08:26;9.23;;;8.23;;
43990;SDS011;29654;50.784;20.604;2023-11-19T01:13:28;11.13;;;9.20;;
43990;SDS011;29654;50.784;20.604;2023-11-19T01:18:31;10.57;;;9.48;;
43990;SDS011;29654;50.784;20.604;2023-11-19T01:23:35;10.65;;;9.48;;
43990;SDS011;29654;50.784;20.604;2023-11-19T01:28:38;10.55;;;9.52;;
43990;SDS011;29654;50.784;20.604;2023-11-19T01:33:45;9.65;;;8.57;;
43990;SDS011;29654;50.784;20.604;2023-11-19T01:38:49;11.07;;;9.43;;
43990;SDS011;29654;50.784;20.604;2023-11-19T01:43:52;10.68;;;8.90;;
43990;SDS011;29654;50.784;20.604;2023-11-19T01:48:55;11.25;;;9.20;;
43990;SDS011;29654;50.784;20.604;2023-11-19T01:53:59;10.93;;;8.68;;
43990;SDS011;29654;50.784;20.604;2023-11-19T01:59:03;10.35;;;9.25;;
43990;SDS011;29654;50.784;20.604;2023-11-19T02:04:06;10.60;;;9.18;;
43990;SDS011;29654;50.784;20.604;2023-11-19T02:09:11;13.68;;;10.25;;
43990;SDS011;29654;50.784;20.604;2023-11-19T02:14:13;9.88;;;8.57;;
43990;SDS011;29654;50.784;20.604;2023-11-19T02:19:18;12.13;;;9.48;;
43990;SDS011;29654;50.784;20.604;2023-11-19T02:24:23;9.40;;;8.50;;
43990;SDS011;29654;50.784;20.604;2023-11-19T02:29:30;9.63;;;8.60;;
43990;SDS011;29654;50.784;20.604;2023-11-19T02:34:35;12.05;;;9.70;;
43990;SDS011;29654;50.784;20.604;2023-11-19T02:39:38;12.57;;;10.00;;
43990;SDS011;29654;50.784;20.604;2023-11-19T02:44:44;10.63;;;9.43;;
43990;SDS011;29654;50.784;20.604;2023-11-19T02:49:48;11.80;;;10.45;;
43990;SDS011;29654;50.784;20.604;2023-11-19T02:54:53;9.25;;;8.35;;
43990;SDS011;29654;50.784;20.604;2023-11-19T02:59:57;9.35;;;8.10;;
43990;SDS011;29654;50.784;20.604;2023-11-19T03:05:00;9.27;;;8.00;;
43990;SDS011;29654;50.784;20.604;2023-11-19T03:10:05;8.80;;;7.90;;
43990;SDS011;29654;50.784;20.604;2023-11-19T03:15:14;8.73;;;7.72;;
43990;SDS011;29654;50.784;20.604;2023-11-19T03:20:17;9.13;;;8.23;;
43990;SDS011;29654;50.784;20.604;2023-11-19T03:25:21;8.95;;;7.75;;
43990;SDS011;29654;50.784;20.604;2023-11-19T03:30:25;8.18;;;7.38;;
43990;SDS011;29654;50.784;20.604;2023-11-19T03:35:28;8.50;;;7.28;;
43990;SDS011;29654;50.784;20.604;2023-11-19T03:40:33;8.18;;;7.38;;
43990;SDS011;29654;50.784;20.604;2023-11-19T03:45:37;7.80;;;7.00;;
43990;SDS011;29654;50.784;20.604;2023-11-19T03:50:42;8.43;;;7.00;;
43990;SDS011;29654;50.784;20.604;2023-11-19T03:55:44;7.65;;;6.82;;
43990;SDS011;29654;50.784;20.604;2023-11-19T04:00:48;8.35;;;7.55;;
43990;SDS011;29654;50.784;20.604;2023-11-19T04:05:51;8.23;;;7.43;;
43990;SDS011;29654;50.784;20.604;2023-11-19T04:10:54;9.27;;;7.57;;
43990;SDS011;29654;50.784;20.604;2023-11-19T04:15:58;10.13;;;8.05;;
43990;SDS011;29654;50.784;20.604;2023-11-19T04:21:00;9.43;;;7.35;;
43990;SDS011;29654;50.784;20.604;2023-11-19T04:26:03;8.68;;;7.78;;
43990;SDS011;29654;50.784;20.604;2023-11-19T04:31:08;9.95;;;8.70;;
43990;SDS011;29654;50.784;20.604;2023-11-19T04:36:11;9.43;;;8.43;;
43990;SDS011;29654;50.784;20.604;2023-11-19T04:41:14;9.35;;;7.65;;
43990;SDS011;29654;50.784;20.604;2023-11-19T04:46:18;9.93;;;7.65;;
43990;SDS011;29654;50.784;20.604;2023-11-19T04:51:21;8.13;;;7.28;;
43990;SDS011;29654;50.784;20.604;2023-11-19T04:56:23;7.72;;;6.82;;
43990;SDS011;29654;50.784;20.604;2023-11-19T05:01:27;6.03;;;5.38;;
43990;SDS011;29654;50.784;20.604;2023-11-19T05:06:30;6.88;;;5.90;;
43990;SDS011;29654;50.784;20.604;2023-11-19T05:11:35;6.43;;;5.82;;
43990;SDS011;29654;50.784;20.604;2023-11-19T05:16:40;6.50;;;5.75;;
43990;SDS011;29654;50.784;20.604;2023-11-19T05:21:43;6.72;;;5.85;;
43990;SDS011;29654;50.784;20.604;2023-11-19T05:26:45;8.02;;;6.63;;
43990;SDS011;29654;50.784;20.604;2023-11-19T05:31:49;8.70;;;6.47;;
43990;SDS011;29654;50.784;20.604;2023-11-19T05:36:52;7.78;;;6.97;;
43990;SDS011;29654;50.784;20.604;2023-11-19T05:41:55;7.13;;;6.43;;
43990;SDS011;29654;50.784;20.604;2023-11-19T05:46:59;6.43;;;5.82;;
43990;SDS011;29654;50.784;20.604;2023-11-19T05:52:01;7.30;;;5.93;;
43990;SDS011;29654;50.784;20.604;2023-11-19T05:57:07;6.75;;;6.05;;
43990;SDS011;29654;50.784;20.604;2023-11-19T06:02:12;8.07;;;6.75;;
43990;SDS011;29654;50.784;20.604;2023-11-19T06:07:14;6.78;;;6.05;;
43990;SDS011;29654;50.784;20.604;2023-11-19T06:12:17;7.05;;;6.35;;
43990;SDS011;29654;50.784;20.604;2023-11-19T06:17:21;7.95;;;6.50;;
43990;SDS011;29654;50.784;20.604;2023-11-19T06:22:23;7.75;;;6.45;;
43990;SDS011;29654;50.784;20.604;2023-11-19T06:27:26;9.07;;;7.30;;
43990;SDS011;29654;50.784;20.604;2023-11-19T06:32:30;8.93;;;6.95;;
43990;SDS011;29654;50.784;20.604;2023-11-19T06:37:33;8.27;;;7.03;;
43990;SDS011;29654;50.784;20.604;2023-11-19T06:42:36;7.85;;;6.53;;
43990;SDS011;29654;50.784;20.604;2023-11-19T06:47:40;7.43;;;6.53;;
43990;SDS011;29654;50.784;20.604;2023-11-19T06:52:42;7.38;;;6.63;;
43990;SDS011;29654;50.784;20.604;2023-11-19T06:57:45;6.78;;;6.13;;
43990;SDS011;29654;50.784;20.604;2023-11-19T07:02:49;8.15;;;6.53;;
43990;SDS011;29654;50.784;20.604;2023-11-19T07:07:51;9.07;;;7.22;;
43990;SDS011;29654;50.784;20.604;2023-11-19T07:12:56;8.65;;;7.20;;
43990;SDS011;29654;50.784;20.604;2023-11-19T07:18:00;7.55;;;6.75;;
43990;SDS011;29654;50.784;20.604;2023-11-19T07:23:04;9.07;;;7.10;;
43990;SDS011;29654;50.784;20.604;2023-11-19T07:28:07;10.20;;;7.68;;
43990;SDS011;29654;50.784;20.604;2023-11-19T07:33:11;10.55;;;8.65;;
43990;SDS011;29654;50.784;20.604;2023-11-19T07:38:14;9.82;;;7.97;;
43990;SDS011;29654;50.784;20.604;2023-11-19T07:43:16;9.35;;;8.25;;
43990;SDS011;29654;50.784;20.604;2023-11-19T07:48:21;8.30;;;7.10;;
43990;SDS011;29654;50.784;20.604;2023-11-19T07:53:25;9.13;;;7.60;;
43990;SDS011;29654;50.784;20.604;2023-11-19T07:58:29;8.93;;;7.38;;
43990;SDS011;29654;50.784;20.604;2023-11-19T08:03:34;8.60;;;7.68;;
43990;SDS011;29654;50.784;20.604;2023-11-19T08:08:37;9.45;;;7.68;;
43990;SDS011;29654;50.784;20.604;2023-11-19T08:13:39;8.40;;;7.05;;
43990;SDS011;29654;50.784;20.604;2023-11-19T08:18:44;9.25;;;7.95;;
43990;SDS011;29654;50.784;20.604;2023-11-19T08:23:46;8.52;;;7.35;;
43990;SDS011;29654;50.784;20.604;2023-11-19T08:28:49;9.52;;;7.70;;
43990;SDS011;29654;50.784;20.604;2023-11-19T08:33:54;9.30;;;7.30;;
43990;SDS011;29654;50.784;20.604;2023-11-19T08:38:57;11.25;;;7.55;;
43990;SDS011;29654;50.784;20.604;2023-11-19T08:44:00;8.55;;;7.65;;
43990;SDS011;29654;50.784;20.604;2023-11-19T08:49:04;8.93;;;7.68;;
43990;SDS011;29654;50.784;20.604;2023-11-19T08:54:08;9.90;;;8.02;;
43990;SDS011;29654;50.784;20.604;2023-11-19T08:59:11;9.20;;;7.85;;
43990;SDS011;29654;50.784;20.604;2023-11-19T09:04:16;10.20;;;8.18;;
43990;SDS011;29654;50.784;20.604;2023-11-19T09:09:22;11.20;;;9.35;;
43990;SDS011;29654;50.784;20.604;2023-11-19T09:14:25;11.55;;;9.20;;
43990;SDS011;29654;50.784;20.604;2023-11-19T09:19:31;9.75;;;8.23;;
43990;SDS011;29654;50.784;20.604;2023-11-19T09:24:36;9.23;;;8.10;;
43990;SDS011;29654;50.784;20.604;2023-11-19T09:29:39;10.23;;;8.60;;
43990;SDS011;29654;50.784;20.604;2023-11-19T09:34:43;9.68;;;8.68;;
43990;SDS011;29654;50.784;20.604;2023-11-19T09:39:47;10.80;;;9.05;;
43990;SDS011;29654;50.784;20.604;2023-11-19T09:44:49;9.43;;;8.45;;
43990;SDS011;29654;50.784;20.604;2023-11-19T09:49:54;10.30;;;9.18;;
43990;SDS011;29654;50.784;20.604;2023-11-19T09:54:57;8.95;;;7.78;;
43990;SDS011;29654;50.784;20.604;2023-11-19T09:59:59;9.55;;;8.18;;
43990;SDS011;29654;50.784;20.604;2023-11-19T10:05:07;11.40;;;9.20;;
43990;SDS011;29654;50.784;20.604;2023-11-19T10:10:10;11.45;;;9.48;;
43990;SDS011;29654;50.784;20.604;2023-11-19T10:15:20;12.20;;;10.02;;
43990;SDS011;29654;50.784;20.604;2023-11-19T10:20:26;12.25;;;9.77;;
43990;SDS011;29654;50.784;20.604;2023-11-19T10:25:28;12.82;;;9.40;;
43990;SDS011;29654;50.784;20.604;2023-11-19T10:30:32;11.23;;;9.43;;
43990;SDS011;29654;50.784;20.604;2023-11-19T10:35:36;12.15;;;9.88;;
43990;SDS011;29654;50.784;20.604;2023-11-19T10:40:54;10.30;;;8.60;;
43990;SDS011;29654;50.784;20.604;2023-11-19T10:46:08;10.48;;;8.75;;
43990;SDS011;29654;50.784;20.604;2023-11-19T10:51:13;10.68;;;8.60;;
43990;SDS011;29654;50.784;20.604;2023-11-19T10:56:24;9.48;;;8.13;;
43990;SDS011;29654;50.784;20.604;2023-11-19T11:01:32;9.10;;;8.20;;
43990;SDS011;29654;50.784;20.604;2023-11-19T11:06:44;9.27;;;7.78;;
43990;SDS011;29654;50.784;20.604;2023-11-19T11:11:48;8.52;;;7.60;;
43990;SDS011;29654;50.784;20.604;2023-11-19T11:16:53;9.18;;;7.10;;
43990;SDS011;29654;50.784;20.604;2023-11-19T11:21:59;10.20;;;8.25;;
43990;SDS011;29654;50.784;20.604;2023-11-19T11:33:05;9.77;;;8.05;;
43990;SDS011;29654;50.784;20.604;2023-11-19T11:38:36;8.32;;;7.53;;
43990;SDS011;29654;50.784;20.604;2023-11-19T11:43:49;9.63;;;8.18;;
43990;SDS011;29654;50.784;20.604;2023-11-19T11:48:53;9.20;;;7.30;;
43990;SDS011;29654;50.784;20.604;2023-11-19T11:53:59;8.35;;;7.25;;
43990;SDS011;29654;50.784;20.604;2023-11-19T11:59:03;10.68;;;8.30;;
43990;SDS011;29654;50.784;20.604;2023-11-19T12:04:09;8.68;;;7.78;;
43990;SDS011;29654;50.784;20.604;2023-11-19T12:09:13;8.13;;;7.05;;
43990;SDS011;29654;50.784;20.604;2023-11-19T12:14:16;8.20;;;6.78;;
43990;SDS011;29654;50.784;20.604;2023-11-19T12:19:18;8.80;;;6.75;;
43990;SDS011;29654;50.784;20.604;2023-11-19T12:24:23;9.07;;;6.85;;
43990;SDS011;29654;50.784;20.604;2023-11-19T12:29:25;8.70;;;6.85;;
43990;SDS011;29654;50.784;20.604;2023-11-19T12:34:28;8.68;;;7.72;;
43990;SDS011;29654;50.784;20.604;2023-11-19T12:39:32;10.50;;;8.00;;
43990;SDS011;29654;50.784;20.604;2023-11-19T12:44:35;9.85;;;8.60;;
43990;SDS011;29654;50.784;20.604;2023-11-19T12:49:37;9.57;;;8.00;;
43990;SDS011;29654;50.784;20.604;2023-11-19T12:54:41;10.32;;;7.72;;
43990;SDS011;29654;50.784;20.604;2023-11-19T12:59:54;9.27;;;8.05;;
43990;SDS011;29654;50.784;20.604;2023-11-19T13:04:57;9.25;;;8.30;;
43990;SDS011;29654;50.784;20.604;2023-11-19T13:10:02;9.80;;;8.43;;
43990;SDS011;29654;50.784;20.604;2023-11-19T13:15:06;9.90;;;8.68;;
43990;SDS011;29654;50.784;20.604;2023-11-19T13:20:25;11.65;;;9.55;;
43990;SDS011;29654;50.784;20.604;2023-11-19T13:25:30;10.50;;;8.98;;
43990;SDS011;29654;50.784;20.604;2023-11-19T13:30:33;10.18;;;8.98;;
43990;SDS011;29654;50.784;20.604;2023-11-19T13:35:36;10.30;;;8.75;;
43990;SDS011;29654;50.784;20.604;2023-11-19T13:40:41;11.00;;;9.10;;
43990;SDS011;29654;50.784;20.604;2023-11-19T13:45:44;9.20;;;7.97;;
43990;SDS011;29654;50.784;20.604;2023-11-19T13:50:47;12.43;;;9.18;;
43990;SDS011;29654;50.784;20.604;2023-11-19T13:55:51;12.50;;;9.23;;
43990;SDS011;29654;50.784;20.604;2023-11-19T14:00:54;10.48;;;8.40;;
43990;SDS011;29654;50.784;20.604;2023-11-19T14:05:58;9.80;;;8.80;;
43990;SDS011;29654;50.784;20.604;2023-11-19T14:11:02;10.52;;;8.45;;
43990;SDS011;29654;50.784;20.604;2023-11-19T14:16:06;9.70;;;8.32;;
43990;SDS011;29654;50.784;20.604;2023-11-19T14:21:09;10.52;;;8.30;;
43990;SDS011;29654;50.784;20.604;2023-11-19T14:26:13;10.40;;;8.32;;
43990;SDS011;29654;50.784;20.604;2023-11-19T14:31:16;10.65;;;8.23;;
43990;SDS011;29654;50.784;20.604;2023-11-19T14:36:20;9.32;;;8.10;;
43990;SDS011;29654;50.784;20.604;2023-11-19T14:41:24;8.02;;;7.00;;
43990;SDS011;29654;50.784;20.604;2023-11-19T14:46:27;8.57;;;7.68;;
43990;SDS011;29654;50.784;20.604;2023-11-19T14:51:30;9.80;;;7.82;;
43990;SDS011;29654;50.784;20.604;2023-11-19T14:56:34;8.93;;;7.30;;
43990;SDS011;29654;50.784;20.604;2023-11-19T15:01:39;8.38;;;7.50;;
43990;SDS011;29654;50.784;20.604;2023-11-19T15:06:42;7.28;;;6.53;;
43990;SDS011;29654;50.784;20.604;2023-11-19T15:11:46;6.72;;;5.72;;
43990;SDS011;29654;50.784;20.604;2023-11-19T15:16:48;6.35;;;5.70;;
43990;SDS011;29654;50.784;20.604;2023-11-19T15:21:51;7.13;;;6.15;;
43990;SDS011;29654;50.784;20.604;2023-11-19T15:26:56;7.53;;;6.28;;
43990;SDS011;29654;50.784;20.604;2023-11-19T15:31:59;7.45;;;6.15;;
43990;SDS011;29654;50.784;20.604;2023-11-19T15:37:03;9.95;;;7.07;;
43990;SDS011;29654;50.784;20.604;2023-11-19T15:42:07;8.68;;;6.60;;
43990;SDS011;29654;50.784;20.604;2023-11-19T15:47:12;8.02;;;6.88;;
43990;SDS011;29654;50.784;20.604;2023-11-19T15:52:15;7.15;;;5.97;;
43990;SDS011;29654;50.784;20.604;2023-11-19T15:57:19;7.60;;;6.55;;
43990;SDS011;29654;50.784;20.604;2023-11-19T16:02:23;7.13;;;6.22;;
43990;SDS011;29654;50.784;20.604;2023-11-19T16:07:26;7.50;;;6.35;;
43990;SDS011;29654;50.784;20.604;2023-11-19T16:12:31;7.07;;;6.30;;
43990;SDS011;29654;50.784;20.604;2023-11-19T16:17:34;7.03;;;6.32;;
43990;SDS011;29654;50.784;20.604;2023-11-19T16:22:38;7.18;;;6.18;;
43990;SDS011;29654;50.784;20.604;2023-11-19T16:27:44;8.25;;;6.97;;
43990;SDS011;29654;50.784;20.604;2023-11-19T16:32:51;9.90;;;6.97;;
43990;SDS011;29654;50.784;20.604;2023-11-19T16:37:55;8.93;;;7.78;;
43990;SDS011;29654;50.784;20.604;2023-11-19T16:42:59;11.40;;;7.95;;
43990;SDS011;29654;50.784;20.604;2023-11-19T16:48:01;9.02;;;7.43;;
43990;SDS011;29654;50.784;20.604;2023-11-19T16:53:05;9.85;;;7.85;;
43990;SDS011;29654;50.784;20.604;2023-11-19T16:58:09;10.50;;;8.63;;
43990;SDS011;29654;50.784;20.604;2023-11-19T17:03:11;10.75;;;8.38;;
43990;SDS011;29654;50.784;20.604;2023-11-19T17:08:14;8.52;;;7.30;;
43990;SDS011;29654;50.784;20.604;2023-11-19T17:13:18;8.60;;;7.70;;
43990;SDS011;29654;50.784;20.604;2023-11-19T17:18:22;7.80;;;6.95;;
43990;SDS011;29654;50.784;20.604;2023-11-19T17:23:25;7.95;;;7.15;;
43990;SDS011;29654;50.784;20.604;2023-11-19T17:28:29;8.40;;;7.40;;
43990;SDS011;29654;50.784;20.604;2023-11-19T17:33:31;9.00;;;8.10;;
43990;SDS011;29654;50.784;20.604;2023-11-19T17:38:34;9.93;;;8.73;;
43990;SDS011;29654;50.784;20.604;2023-11-19T17:43:38;13.48;;;9.93;;
43990;SDS011;29654;50.784;20.604;2023-11-19T17:48:40;13.82;;;11.07;;
43990;SDS011;29654;50.784;20.604;2023-11-19T17:53:43;16.50;;;12.18;;
43990;SDS011;29654;50.784;20.604;2023-11-19T17:58:47;10.23;;;9.27;;
43990;SDS011;29654;50.784;20.604;2023-11-19T18:03:49;11.20;;;9.40;;
43990;SDS011;29654;50.784;20.604;2023-11-19T18:08:52;17.30;;;15.50;;
43990;SDS011;29654;50.784;20.604;2023-11-19T18:13:56;13.85;;;10.70;;
43990;SDS011;29654;50.784;20.604;2023-11-19T18:18:59;11.00;;;9.57;;
43990;SDS011;29654;50.784;20.604;2023-11-19T18:24:01;10.63;;;9.50;;
43990;SDS011;29654;50.784;20.604;2023-11-19T18:29:06;12.02;;;10.38;;
43990;SDS011;29654;50.784;20.604;2023-11-19T18:34:08;11.27;;;9.82;;
43990;SDS011;29654;50.784;20.604;2023-11-19T18:39:12;12.68;;;10.30;;
43990;SDS011;29654;50.784;20.604;2023-11-19T18:44:16;13.57;;;11.00;;
43990;SDS011;29654;50.784;20.604;2023-11-19T18:49:18;13.80;;;10.90;;
43990;SDS011;29654;50.784;20.604;2023-11-19T18:54:21;13.15;;;11.15;;
43990;SDS011;29654;50.784;20.604;2023-11-19T18:59:25;15.35;;;12.10;;
43990;SDS011;29654;50.784;20.604;2023-11-19T19:04:27;14.00;;;11.80;;
43990;SDS011;29654;50.784;20.604;2023-11-19T19:09:30;20.63;;;15.02;;
43990;SDS011;29654;50.784;20.604;2023-11-19T19:14:34;16.95;;;13.90;;
43990;SDS011;29654;50.784;20.604;2023-11-19T19:19:37;13.88;;;11.57;;
43990;SDS011;29654;50.784;20.604;2023-11-19T19:24:39;16.05;;;11.80;;
43990;SDS011;29654;50.784;20.604;2023-11-19T19:29:43;13.90;;;12.15;;
43990;SDS011;29654;50.784;20.604;2023-11-19T19:34:46;15.27;;;12.43;;
43990;SDS011;29654;50.784;20.604;2023-11-19T19:39:48;17.58;;;13.55;;
43990;SDS011;29654;50.784;20.604;2023-11-19T19:44:52;14.55;;;11.60;;
43990;SDS011;29654;50.784;20.604;2023-11-19T19:49:55;26.70;;;23.90;;
43990;SDS011;29654;50.784;20.604;2023-11-19T19:54:58;22.33;;;16.85;;
43990;SDS011;29654;50.784;20.604;2023-11-19T20:00:03;25.30;;;17.67;;
43990;SDS011;29654;50.784;20.604;2023-11-19T20:05:11;21.50;;;16.52;;
43990;SDS011;29654;50.784;20.604;2023-11-19T20:10:14;17.88;;;14.05;;
43990;SDS011;29654;50.784;20.604;2023-11-19T20:15:18;14.80;;;12.27;;
43990;SDS011;29654;50.784;20.604;2023-11-19T20:20:23;15.90;;;13.02;;
43990;SDS011;29654;50.784;20.604;2023-11-19T20:25:28;14.25;;;12.60;;
43990;SDS011;29654;50.784;20.604;2023-11-19T20:30:32;20.88;;;18.52;;
43990;SDS011;29654;50.784;20.604;2023-11-19T20:35:35;20.35;;;18.08;;
43990;SDS011;29654;50.784;20.604;2023-11-19T20:40:39;18.33;;;13.38;;
43990;SDS011;29654;50.784;20.604;2023-11-19T20:45:45;25.60;;;16.88;;
43990;SDS011;29654;50.784;20.604;2023-11-19T20:50:50;20.70;;;15.05;;
43990;SDS011;29654;50.784;20.604;2023-11-19T20:55:54;20.73;;;15.38;;
43990;SDS011;29654;50.784;20.604;2023-11-19T21:00:58;27.27;;;18.02;;
43990;SDS011;29654;50.784;20.604;2023-11-19T21:06:03;28.00;;;18.63;;
43990;SDS011;29654;50.784;20.604;2023-11-19T21:11:08;21.75;;;15.82;;
43990;SDS011;29654;50.784;20.604;2023-11-19T21:16:13;17.85;;;13.95;;
43990;SDS011;29654;50.784;20.604;2023-11-19T21:21:16;17.27;;;13.48;;
43990;SDS011;29654;50.784;20.604;2023-11-19T21:26:19;16.85;;;13.40;;
43990;SDS011;29654;50.784;20.604;2023-11-19T21:31:23;16.95;;;14.43;;
43990;SDS011;29654;50.784;20.604;2023-11-19T21:36:26;18.73;;;15.25;;
43990;SDS011;29654;50.784;20.604;2023-11-19T21:41:29;22.20;;;15.70;;
43990;SDS011;29654;50.784;20.604;2023-11-19T21:46:33;22.05;;;15.75;;
43990;SDS011;29654;50.784;20.604;2023-11-19T21:51:38;14.80;;;11.18;;
43990;SDS011;29654;50.784;20.604;2023-11-19T21:56:41;15.45;;;12.65;;
43990;SDS011;29654;50.784;20.604;2023-11-19T22:01:45;15.80;;;12.32;;
43990;SDS011;29654;50.784;20.604;2023-11-19T22:06:48;14.32;;;11.82;;
43990;SDS011;29654;50.784;20.604;2023-11-19T22:11:54;13.85;;;11.07;;
43990;SDS011;29654;50.784;20.604;2023-11-19T22:16:58;12.45;;;10.52;;
43990;SDS011;29654;50.784;20.604;2023-11-19T22:22:01;16.08;;;12.35;;
43990;SDS011;29654;50.784;20.604;2023-11-19T22:27:05;18.00;;;14.20;;
43990;SDS011;29654;50.784;20.604;2023-11-19T22:32:10;20.52;;;16.10;;
43990;SDS011;29654;50.784;20.604;2023-11-19T22:37:12;21.00;;;15.68;;
43990;SDS011;29654;50.784;20.604;2023-11-19T22:42:15;18.90;;;15.43;;
43990;SDS011;29654;50.784;20.604;2023-11-19T22:47:19;18.33;;;14.35;;
43990;SDS011;29654;50.784;20.604;2023-11-19T22:52:22;20.63;;;13.98;;
43990;SDS011;29654;50.784;20.604;2023-11-19T22:57:24;22.80;;;16.88;;
43990;SDS011;29654;50.784;20.604;2023-11-19T23:02:28;27.40;;;21.02;;
43990;SDS011;29654;50.784;20.604;2023-11-19T23:07:31;14.95;;;12.48;;
43990;SDS011;29654;50.784;20.604;2023-11-19T23:12:34;22.33;;;16.95;;
43990;SDS011;29654;50.784;20.604;2023-11-19T23:17:38;45.03;;;30.23;;
43990;SDS011;29654;50.784;20.604;2023-11-19T23:22:40;52.05;;;32.05;;
43990;SDS011;29654;50.784;20.604;2023-11-19T23:27:43;42.13;;;28.60;;
43990;SDS011;29654;50.784;20.604;2023-11-19T23:32:47;37.65;;;27.98;;
43990;SDS011;29654;50.784;20.604;2023-11-19T23:37:50;39.33;;;27.95;;
43990;SDS011;29654;50.784;20.604;2023-11-19T23:42:52;39.53;;;27.65;;
43990;SDS011;29654;50.784;20.604;2023-11-19T23:47:56;30.35;;;22.58;;
43990;SDS011;29654;50.784;20.604;2023-11-19T23:52:58;17.98;;;12.65;;
43990;SDS011;29654;50.784;20.604;2023-11-19T23:58:01;12.18;;;9.65;;
